Time;durP1;ratioP1;P1;durP2;ratioP2;P2;SDS_P1;SDS_P2;PMS_P1;PMS_P2;Temp;Humidity;BMP_temperature;BMP_pressure;BME280_temperature;BME280_humidity;BME280_pressure;Samples;Min_cycle;Max_cycle;Signal;HPM_P1;HPM_P2
2022/12/08 00:01:35;;;;;;;32.85;18.85;;;;;;;2.49;82.18;101170.88;1787642;80;25635;-61
2022/12/08 00:04:03;;;;;;;42.78;20.02;;;;;;;2.49;81.89;101169.55;1794634;78;25744;-62
2022/12/08 00:09:37;;;;;;;35.63;18.93;;;;;;;2.53;81.62;101173.40;1823832;78;27528;-61
2022/12/08 00:12:15;;;;;;;38.55;18.75;;;;;;;2.55;81.88;101171.53;1824774;78;25421;-62
2022/12/08 00:14:46;;;;;;;38.42;19.77;;;;;;;2.57;81.87;101176.28;1825268;78;25708;-62
2022/12/08 00:17:17;;;;;;;39.98;18.52;;;;;;;2.56;81.82;101173.23;1824802;78;26550;-60
2022/12/08 00:19:45;;;;;;;61.45;17.50;;;;;;;2.50;81.35;101169.95;1825314;78;25709;-62
2022/12/08 00:22:14;;;;;;;48.95;17.75;;;;;;;2.42;80.94;101164.62;1824794;78;27475;-61
2022/12/08 00:24:44;;;;;;;77.67;18.87;;;;;;;2.29;80.91;101165.20;1821938;78;25480;-61
2022/12/08 00:27:14;;;;;;;89.83;20.05;;;;;;;2.17;80.80;101175.94;1811419;79;25751;-62
2022/12/08 00:29:44;;;;;;;82.22;19.48;;;;;;;2.13;81.22;101190.76;1811384;78;26702;-62
2022/12/08 00:32:14;;;;;;;77.55;20.95;;;;;;;2.11;81.53;101192.61;1811200;79;44125;-61
2022/12/08 00:34:44;;;;;;;83.12;20.57;;;;;;;2.08;81.54;101192.30;1811141;79;27334;-62
2022/12/08 00:37:14;;;;;;;54.27;21.52;;;;;;;2.08;81.69;101186.98;1811542;79;25802;-62
2022/12/08 00:39:42;;;;;;;45.60;21.20;;;;;;;2.06;81.76;101188.00;1811342;79;25643;-61
2022/12/08 00:42:16;;;;;;;45.15;20.60;;;;;;;2.06;81.88;101189.33;1811573;78;25860;-61
2022/12/08 00:44:47;;;;;;;31.97;18.98;;;;;;;2.07;81.89;101195.00;1809585;79;25794;-61
2022/12/08 00:47:14;;;;;;;40.35;18.30;;;;;;;2.08;82.11;101200.26;1811712;78;28255;-62
2022/12/08 00:49:48;;;;;;;30.92;18.35;;;;;;;2.13;82.30;101198.23;1784587;79;26782;-61
2022/12/08 00:52:20;;;;;;;36.38;19.07;;;;;;;2.16;82.31;101195.91;1784440;79;25737;-63
2022/12/08 00:54:48;;;;;;;41.73;20.35;;;;;;;2.21;82.75;101195.69;1797420;78;25811;-61
2022/12/08 00:57:15;;;;;;;32.98;19.25;;;;;;;2.27;82.77;101204.72;1788493;80;26198;-62
2022/12/08 00:59:47;;;;;;;33.48;18.07;;;;;;;2.28;82.80;101202.45;1785228;78;27481;-62
2022/12/08 01:02:14;;;;;;;27.70;16.42;;;;;;;2.32;82.90;101202.69;1783765;80;25720;-62
2022/12/08 01:04:43;;;;;;;33.78;17.80;;;;;;;2.29;82.77;101196.19;1783666;80;25755;-62
2022/12/08 01:07:10;;;;;;;28.40;16.60;;;;;;;2.27;82.54;101199.41;1784121;80;26536;-61
2022/12/08 01:09:37;;;;;;;39.33;17.40;;;;;;;2.31;82.82;101200.52;1783708;79;25455;-62
2022/12/08 01:12:07;;;;;;;32.30;17.87;;;;;;;2.32;82.80;101198.70;1783709;80;27418;-62
2022/12/08 01:14:35;;;;;;;26.42;17.75;;;;;;;2.32;82.60;101204.89;1783210;80;25473;-63
2022/12/08 01:17:02;;;;;;;23.95;16.67;;;;;;;2.32;82.76;101196.93;1784036;80;25491;-60
2022/12/08 01:19:29;;;;;;;30.25;16.75;;;;;;;2.33;82.80;101180.52;1783706;80;26372;-61
2022/12/08 01:21:58;;;;;;;31.25;16.97;;;;;;;2.35;83.07;101186.63;1783874;80;25820;-62
2022/12/08 01:24:26;;;;;;;29.32;17.07;;;;;;;2.37;83.09;101191.85;1787733;79;27679;-61
2022/12/08 01:26:55;;;;;;;30.10;16.50;;;;;;;2.40;83.19;101189.91;1816110;78;26588;-62
2022/12/08 01:29:22;;;;;;;39.15;18.05;;;;;;;2.45;83.40;101186.59;1816865;78;25710;-62
2022/12/08 01:31:48;;;;;;;30.57;16.55;;;;;;;2.51;83.19;101184.08;1816915;79;25821;-62
2022/12/08 01:34:15;;;;;;;28.27;15.72;;;;;;;2.58;83.16;101180.21;1816998;79;25734;-62
2022/12/08 01:36:43;;;;;;;27.77;16.48;;;;;;;2.62;82.80;101177.78;1816866;79;27596;-62
2022/12/08 01:39:14;;;;;;;31.05;16.23;;;;;;;2.67;82.86;101184.20;1816517;79;25737;-63
2022/12/08 01:41:43;;;;;;;32.40;15.65;;;;;;;2.72;83.03;101180.87;1816997;78;25710;-60
2022/12/08 01:44:15;;;;;;;26.23;15.60;;;;;;;2.78;83.07;101194.32;1816779;78;25773;-62
2022/12/08 01:46:47;;;;;;;37.25;15.63;;;;;;;2.83;82.98;101193.61;1816703;79;25989;-62
2022/12/08 01:49:33;;;;;;;50.00;14.58;;;;;;;2.88;83.06;101196.05;1816868;78;27459;-62
2022/12/08 01:52:23;;;;;;;48.52;16.30;;;;;;;2.87;82.87;101191.17;1816911;79;26013;-60
2022/12/08 01:55:01;;;;;;;80.17;16.90;;;;;;;2.83;82.72;101190.95;1797835;78;25719;-61
2022/12/08 01:57:43;;;;;;;75.70;17.90;;;;;;;2.80;82.59;101196.41;1788756;80;25762;-62
2022/12/08 02:00:15;;;;;;;106.80;17.62;;;;;;;2.75;82.45;101187.81;1788686;80;25707;-62
2022/12/08 02:02:47;;;;;;;93.37;16.10;;;;;;;2.71;82.25;101188.44;1788776;80;27446;-61
2022/12/08 02:05:15;;;;;;;78.17;17.17;;;;;;;2.63;81.84;101192.78;1785431;80;25805;-60
2022/12/08 02:07:43;;;;;;;87.82;17.10;;;;;;;2.56;81.55;101191.81;1784666;78;25779;-60
2022/12/08 02:10:16;;;;;;;83.22;16.20;;;;;;;2.49;81.56;101191.28;1783696;79;25903;-60
2022/12/08 02:12:44;;;;;;;66.85;17.30;;;;;;;2.44;81.41;101194.60;1784057;80;25786;-62
2022/12/08 02:15:11;;;;;;;59.27;16.37;;;;;;;2.38;81.38;101201.55;1783718;79;27461;-62
2022/12/08 02:17:55;;;;;;;29.90;17.37;;;;;;;2.33;81.33;101204.41;1783772;80;25780;-62
2022/12/08 02:20:42;;;;;;;29.32;17.52;;;;;;;2.28;81.25;101199.80;1782889;80;34867;-61
2022/12/08 02:23:36;;;;;;;26.17;16.65;;;;;;;2.27;81.56;101192.77;1783723;80;27984;-61
2022/12/08 02:26:20;;;;;;;25.85;16.35;;;;;;;2.25;81.71;101191.97;1806292;78;25683;-61
2022/12/08 02:29:17;;;;;;;;;;;;;;;2.22;81.63;101198.30;1827051;78;27432;-61
2022/12/08 02:32:04;;;;;;;31.87;15.50;;;;;;;2.19;81.83;101193.12;1825012;78;27278;-61
2022/12/08 02:34:57;;;;;;;30.65;15.93;;;;;;;2.21;82.50;101197.02;1825351;78;25653;-61
2022/12/08 02:37:51;;;;;;;31.77;14.65;;;;;;;2.13;82.14;101194.26;1825119;78;25869;-62
2022/12/08 02:40:44;;;;;;;29.90;16.12;;;;;;;2.14;82.42;101199.97;1825529;78;25726;-61
2022/12/08 02:43:22;;;;;;;20.35;14.43;;;;;;;2.16;82.61;101202.09;1766328;80;27490;-62
2022/12/08 02:46:00;;;;;;;24.98;15.50;;;;;;;2.14;82.28;101205.27;1767038;80;25783;-62
2022/12/08 02:48:29;;;;;;;26.52;15.48;;;;;;;2.21;82.73;101212.94;1790775;80;25739;-61
2022/12/08 02:50:56;;;;;;;27.10;15.45;;;;;;;2.25;82.75;101208.75;1790752;80;25799;-61
2022/12/08 02:53:22;;;;;;;23.25;14.18;;;;;;;2.26;82.87;101208.30;1797343;78;25603;-61
2022/12/08 02:56:18;;;;;;;36.05;15.53;;;;;;;2.32;82.99;101213.31;1788919;80;27417;-61
2022/12/08 02:59:05;;;;;;;27.07;15.45;;;;;;;2.35;82.97;101214.02;1786193;80;25778;-61
2022/12/08 03:01:58;;;;;;;32.75;16.67;;;;;;;2.40;82.93;101216.94;1782458;80;25644;-61
2022/12/08 03:04:58;;;;;;;23.70;16.00;;;;;;;2.37;82.66;101213.09;1783141;80;32466;-62
2022/12/08 03:07:30;;;;;;;35.13;16.80;;;;;;;2.32;82.39;101217.30;1745948;81;25999;-62
2022/12/08 03:10:10;;;;;;;26.33;14.50;;;;;;;2.28;82.46;101223.70;1776131;80;27667;-62
2022/12/08 03:12:47;;;;;;;20.85;12.93;;;;;;;2.26;82.57;101228.20;1765031;80;25482;-61
2022/12/08 03:15:21;;;;;;;32.33;13.90;;;;;;;2.21;82.34;101220.91;1782908;80;25651;-62
2022/12/08 03:17:56;;;;;;;21.12;12.80;;;;;;;2.18;82.50;101231.20;1782096;80;25790;-62
2022/12/08 03:20:25;;;;;;;23.52;13.60;;;;;;;2.18;82.86;101231.20;1783297;80;25718;-61
2022/12/08 03:22:56;;;;;;;27.13;13.48;;;;;;;2.19;82.81;101235.14;1783023;80;28126;-61
2022/12/08 03:25:26;;;;;;;22.15;13.20;;;;;;;2.23;82.90;101234.53;1793615;79;25790;-62
2022/12/08 03:27:53;;;;;;;32.13;13.80;;;;;;;2.26;82.79;101234.84;1802715;79;25686;-61
2022/12/08 03:30:39;;;;;;;51.35;13.83;;;;;;;2.27;82.93;101235.25;1803012;79;25979;-63
2022/12/08 03:33:28;;;;;;;30.35;14.05;;;;;;;2.29;82.94;101245.30;1800767;79;25771;-62
2022/12/08 03:36:01;;;;;;;50.17;14.87;;;;;;;2.32;83.05;101243.84;1803079;79;27482;-63
2022/12/08 03:38:44;;;;;;;59.27;14.50;;;;;;;2.33;82.88;101240.26;1792386;78;25763;-62
2022/12/08 03:41:20;;;;;;;58.45;12.35;;;;;;;2.32;82.95;101242.06;1803026;79;25776;-63
2022/12/08 03:43:54;;;;;;;123.80;16.20;;;;;;;2.23;82.15;101242.94;1801700;79;25762;-61
2022/12/08 03:46:24;;;;;;;65.62;12.78;;;;;;;2.14;82.03;101242.91;1801770;79;25683;-61
2022/12/08 03:48:51;;;;;;;101.67;13.45;;;;;;;2.09;81.95;101248.88;1802708;79;28165;-62
2022/12/08 03:51:18;;;;;;;61.40;12.50;;;;;;;2.01;81.59;101254.55;1802825;79;25757;-62
2022/12/08 03:53:46;;;;;;;27.30;12.85;;;;;;;1.93;81.78;101256.21;1810605;78;25823;-61
2022/12/08 03:56:24;;;;;;;50.08;12.78;;;;;;;1.91;81.83;101255.89;1818948;78;25742;-61
2022/12/08 03:58:52;;;;;;;30.90;12.75;;;;;;;1.84;81.83;101257.47;1818780;78;25711;-62
2022/12/08 04:01:20;;;;;;;16.93;11.53;;;;;;;1.84;82.17;101256.63;1818885;78;26868;-62
2022/12/08 04:03:46;;;;;;;28.50;12.15;;;;;;;1.82;82.06;101254.49;1818621;78;25760;-61
2022/12/08 04:06:15;;;;;;;22.87;12.20;;;;;;;1.83;82.49;101257.09;1818996;78;25757;-62
2022/12/08 04:08:42;;;;;;;17.12;11.48;;;;;;;1.87;82.66;101257.34;1818704;78;25956;-62
2022/12/08 04:11:09;;;;;;;18.40;11.22;;;;;;;1.92;82.93;101256.29;1818800;78;25852;-61
2022/12/08 04:13:38;;;;;;;30.92;11.63;;;;;;;1.96;83.13;101256.09;1818742;78;27454;-61
2022/12/08 04:16:07;;;;;;;24.12;12.05;;;;;;;2.04;83.54;101253.06;1818873;78;25439;-60
2022/12/08 04:18:35;;;;;;;17.48;11.55;;;;;;;2.08;83.31;101245.83;1818802;78;26141;-62
2022/12/08 04:21:02;;;;;;;22.70;11.55;;;;;;;2.15;83.39;101247.30;1818905;78;25936;-62
2022/12/08 04:23:29;;;;;;;17.15;10.65;;;;;;;2.13;83.06;101250.00;1818749;78;25811;-62
2022/12/08 04:25:56;;;;;;;15.63;9.90;;;;;;;2.17;83.28;101247.61;1792264;78;26861;-62
2022/12/08 04:28:22;;;;;;;18.70;11.83;;;;;;;2.17;82.82;101243.63;1782917;80;25721;-62
2022/12/08 04:30:49;;;;;;;25.90;11.57;;;;;;;2.11;82.84;101245.22;1783120;80;25496;-62
2022/12/08 04:33:16;;;;;;;16.87;10.78;;;;;;;2.11;82.94;101239.91;1783187;80;25754;-62
2022/12/08 04:35:43;;;;;;;17.55;10.78;;;;;;;2.08;82.75;101235.20;1783196;80;25807;-62
2022/12/08 04:38:10;;;;;;;24.45;11.45;;;;;;;2.00;82.51;101241.73;1783208;80;28213;-62
2022/12/08 04:40:38;;;;;;;24.43;11.88;;;;;;;2.00;82.79;101247.52;1782837;80;25763;-62
2022/12/08 04:43:04;;;;;;;19.30;11.20;;;;;;;2.01;82.92;101241.28;1783078;80;25630;-62
2022/12/08 04:45:31;;;;;;;20.20;12.80;;;;;;;2.06;83.22;101233.96;1783207;80;25954;-62
2022/12/08 04:48:00;;;;;;;31.20;13.43;;;;;;;2.10;83.16;101232.91;1783201;80;25786;-62
2022/12/08 04:50:28;;;;;;;32.35;11.85;;;;;;;2.07;82.69;101227.73;1783040;80;27436;-61
2022/12/08 04:52:54;;;;;;;21.80;10.30;;;;;;;2.02;82.53;101231.03;1788067;78;25712;-62
2022/12/08 04:55:22;;;;;;;17.42;10.08;;;;;;;2.04;82.83;101241.13;1784536;78;25831;-61
2022/12/08 04:57:49;;;;;;;25.92;11.15;;;;;;;2.00;82.75;101236.91;1782962;80;25801;-61
2022/12/08 05:00:18;;;;;;;50.98;11.93;;;;;;;2.02;82.83;101234.57;1787326;80;25637;-61
2022/12/08 05:02:44;;;;;;;31.00;11.08;;;;;;;1.98;82.26;101244.06;1788724;80;27503;-61
2022/12/08 05:05:11;;;;;;;82.20;10.98;;;;;;;1.85;81.95;101251.23;1788859;80;25770;-61
2022/12/08 05:07:38;;;;;;;25.37;10.13;;;;;;;1.75;81.92;101248.59;1788633;80;25778;-61
2022/12/08 05:10:06;;;;;;;49.88;10.68;;;;;;;1.71;81.89;101247.02;1788717;80;25798;-62
2022/12/08 05:12:33;;;;;;;39.63;10.40;;;;;;;1.65;81.62;101243.31;1788868;80;25924;-61
2022/12/08 05:15:00;;;;;;;22.62;11.03;;;;;;;1.58;81.56;101245.36;1788829;80;27459;-61
2022/12/08 05:17:27;;;;;;;19.95;10.18;;;;;;;1.54;81.33;101245.97;1788719;80;26125;-61
2022/12/08 05:19:53;;;;;;;19.55;10.65;;;;;;;1.49;81.11;101243.95;1788905;80;25791;-61
2022/12/08 05:22:20;;;;;;;27.37;11.83;;;;;;;1.45;81.11;101245.48;1789122;80;25910;-62
2022/12/08 05:24:46;;;;;;;22.77;10.98;;;;;;;1.42;81.38;101250.94;1793355;79;26010;-61
2022/12/08 05:27:13;;;;;;;15.20;10.78;;;;;;;1.42;81.67;101252.27;1805993;79;27251;-61
2022/12/08 05:29:40;;;;;;;17.67;11.38;;;;;;;1.42;81.98;101261.06;1805692;79;25641;-62
2022/12/08 05:32:07;;;;;;;16.10;10.93;;;;;;;1.47;82.16;101263.52;1805816;79;25726;-61
2022/12/08 05:34:33;;;;;;;18.82;12.37;;;;;;;1.51;82.36;101274.41;1805907;79;26553;-61
2022/12/08 05:37:00;;;;;;;19.45;11.08;;;;;;;1.56;82.45;101271.08;1806298;79;25819;-61
2022/12/08 05:39:27;;;;;;;18.92;12.05;;;;;;;1.61;82.62;101265.13;1805850;79;27437;-61
2022/12/08 05:41:54;;;;;;;21.12;12.28;;;;;;;1.66;82.51;101264.94;1805817;79;25757;-61
2022/12/08 05:44:21;;;;;;;20.68;12.73;;;;;;;1.68;82.07;101272.34;1806394;79;25726;-61
2022/12/08 05:46:47;;;;;;;26.07;11.88;;;;;;;1.71;82.40;101278.84;1806278;79;25987;-61
2022/12/08 05:49:14;;;;;;;25.37;13.28;;;;;;;1.74;82.58;101284.03;1805891;79;25726;-61
2022/12/08 05:51:41;;;;;;;19.42;12.05;;;;;;;1.77;82.56;101289.66;1806454;79;26871;-61
2022/12/08 05:54:08;;;;;;;15.25;10.78;;;;;;;1.74;82.30;101288.01;1795589;78;25839;-61
2022/12/08 05:56:35;;;;;;;20.97;10.40;;;;;;;1.74;82.25;101293.31;1789027;80;25935;-61
2022/12/08 05:59:07;;;;;;;20.05;11.78;;;;;;;1.75;82.39;101292.36;1788793;80;25824;-60
2022/12/08 06:01:34;;;;;;;20.43;12.30;;;;;;;1.78;82.63;101298.02;1788981;80;25739;-61
2022/12/08 06:04:03;;;;;;;17.80;11.25;;;;;;;1.82;82.78;101305.78;1788781;80;27459;-61
2022/12/08 06:06:33;;;;;;;19.90;12.10;;;;;;;1.86;83.04;101305.17;1788842;80;25766;-61
2022/12/08 06:09:02;;;;;;;18.87;12.35;;;;;;;1.88;82.64;101307.31;1788866;80;25829;-61
2022/12/08 06:11:31;;;;;;;16.70;12.15;;;;;;;1.94;83.06;101305.70;1788974;80;25717;-60
2022/12/08 06:13:58;;;;;;;17.12;11.68;;;;;;;2.00;83.28;101305.91;1788728;80;25718;-61
2022/12/08 06:16:26;;;;;;;19.10;11.55;;;;;;;2.08;83.29;101302.44;1789197;80;27573;-61
2022/12/08 06:18:54;;;;;;;18.17;11.65;;;;;;;2.15;83.21;101309.67;1788679;80;25833;-61
2022/12/08 06:21:21;;;;;;;19.23;12.50;;;;;;;2.22;83.18;101314.22;1789176;80;26011;-61
2022/12/08 06:23:51;;;;;;;23.05;12.20;;;;;;;2.26;82.73;101323.78;1788940;80;25777;-61
2022/12/08 06:26:19;;;;;;;44.15;18.25;;;;;;;2.27;82.80;101324.18;1821232;78;25805;-61
2022/12/08 06:28:48;;;;;;;59.70;19.48;;;;;;;2.30;82.65;101326.67;1824893;78;27289;-61
2022/12/08 06:31:19;;;;;;;54.93;21.52;;;;;;;2.27;82.21;101330.34;1824933;78;25897;-61
2022/12/08 06:33:46;;;;;;;77.78;20.30;;;;;;;2.29;82.41;101336.89;1825070;78;25809;-60
2022/12/08 06:36:16;;;;;;;72.25;18.80;;;;;;;2.31;82.50;101346.99;1825111;78;25834;-61
2022/12/08 06:38:43;;;;;;;76.75;18.57;;;;;;;2.34;82.58;101341.55;1825087;78;25765;-60
2022/12/08 06:41:12;;;;;;;72.32;19.40;;;;;;;2.33;82.38;101339.83;1816911;78;28152;-61
2022/12/08 06:43:40;;;;;;;65.72;21.30;;;;;;;2.33;82.17;101342.00;1795926;78;25736;-60
2022/12/08 06:46:11;;;;;;;85.00;19.15;;;;;;;2.32;82.11;101342.96;1791122;78;25707;-61
2022/12/08 06:48:38;;;;;;;82.10;18.37;;;;;;;2.31;82.05;101342.56;1790650;80;25805;-61
2022/12/08 06:51:21;;;;;;;48.63;16.60;;;;;;;2.29;81.85;101339.55;1796095;78;25464;-61
2022/12/08 06:53:49;;;;;;;40.45;17.82;;;;;;;2.28;81.79;101341.84;1808627;78;33119;-61
2022/12/08 06:56:18;;;;;;;31.62;16.10;;;;;;;2.30;81.77;101343.94;1820752;78;25850;-60
2022/12/08 06:58:45;;;;;;;38.30;16.57;;;;;;;2.32;81.82;101344.29;1792776;79;25720;-61
2022/12/08 07:01:13;;;;;;;37.35;16.73;;;;;;;2.35;82.11;101345.45;1822747;78;26454;-61
2022/12/08 07:03:42;;;;;;;41.02;19.57;;;;;;;2.41;82.45;101348.30;1822743;78;26241;-61
2022/12/08 07:06:15;;;;;;;33.88;16.30;;;;;;;2.44;82.53;101348.18;1822872;78;27061;-61
2022/12/08 07:08:42;;;;;;;41.35;18.17;;;;;;;2.48;82.54;101347.09;1822692;78;25803;-61
2022/12/08 07:11:11;;;;;;;46.28;20.05;;;;;;;2.53;82.72;101351.34;1822939;78;25471;-61
2022/12/08 07:13:38;;;;;;;43.63;20.92;;;;;;;2.59;82.94;101349.73;1822823;78;25935;-61
2022/12/08 07:16:09;;;;;;;50.75;21.52;;;;;;;2.60;82.98;101350.97;1835384;78;26067;-61
2022/12/08 07:18:37;;;;;;;60.90;25.20;;;;;;;2.62;83.08;101355.76;1836518;78;27465;-61
2022/12/08 07:21:08;;;;;;;48.15;20.88;;;;;;;2.68;83.24;101355.09;1836677;78;25858;-61
2022/12/08 07:23:35;;;;;;;59.10;25.02;;;;;;;2.71;83.19;101362.91;1836706;78;25701;-61
2022/12/08 07:26:05;;;;;;;50.67;21.82;;;;;;;2.71;82.93;101364.23;1797501;78;25790;-61
2022/12/08 07:28:34;;;;;;;69.53;22.87;;;;;;;2.70;83.16;101366.05;1786768;80;26227;-62
2022/12/08 07:31:01;;;;;;;40.30;18.80;;;;;;;2.73;83.08;101372.55;1786651;80;27429;-62
2022/12/08 07:33:28;;;;;;;59.23;21.45;;;;;;;2.73;82.83;101363.25;1786594;80;25770;-61
2022/12/08 07:36:02;;;;;;;68.90;26.82;;;;;;;2.78;83.11;101363.05;1786668;79;25905;-61
2022/12/08 07:38:29;;;;;;;57.55;21.70;;;;;;;2.88;83.70;101362.98;1786824;79;25935;-61
2022/12/08 07:40:56;;;;;;;57.58;22.65;;;;;;;2.98;83.58;101359.45;1786877;80;25879;-61
2022/12/08 07:43:23;;;;;;;70.45;25.05;;;;;;;3.06;83.61;101356.40;1786802;80;27535;-61
2022/12/08 07:45:50;;;;;;;49.50;21.65;;;;;;;3.15;83.58;101359.10;1786715;80;25778;-61
2022/12/08 07:48:17;;;;;;;59.55;23.12;;;;;;;3.22;83.29;101364.52;1786629;79;25691;-61
2022/12/08 07:50:45;;;;;;;57.38;22.52;;;;;;;3.26;83.28;101367.43;1786432;79;25826;-61
2022/12/08 07:53:14;;;;;;;55.83;21.93;;;;;;;3.28;82.91;101371.73;1795891;78;25675;-61
2022/12/08 07:55:43;;;;;;;61.80;22.13;;;;;;;3.29;83.00;101372.13;1822829;78;27486;-61
2022/12/08 07:58:11;;;;;;;63.25;22.87;;;;;;;3.37;83.21;101372.22;1822538;78;26485;-61
2022/12/08 08:00:38;;;;;;;69.47;23.98;;;;;;;3.43;83.42;101375.89;1820597;78;25727;-61
2022/12/08 08:03:05;;;;;;;103.95;28.00;;;;;;;3.47;83.16;101373.49;1818728;78;25848;-61
2022/12/08 08:05:31;;;;;;;107.45;29.23;;;;;;;3.47;83.16;101381.92;1818976;78;25765;-61
2022/12/08 08:07:58;;;;;;;83.12;25.85;;;;;;;3.50;83.39;101383.12;1818655;78;27561;-62
2022/12/08 08:10:25;;;;;;;105.27;33.85;;;;;;;3.51;82.70;101379.04;1818819;78;25639;-61
2022/12/08 08:12:52;;;;;;;89.90;32.65;;;;;;;3.37;82.11;101386.84;1818869;78;25722;-62
2022/12/08 08:15:20;;;;;;;99.40;36.50;;;;;;;3.32;82.15;101390.20;1818843;78;25693;-61
2022/12/08 08:17:53;;;;;;;123.10;38.08;;;;;;;3.33;82.58;101392.78;1818822;78;25669;-61
2022/12/08 08:20:20;;;;;;;144.20;39.92;;;;;;;3.36;82.64;101385.12;1817178;78;27169;-62
2022/12/08 08:22:49;;;;;;;123.00;38.38;;;;;;;3.38;82.35;101388.09;1818816;78;25787;-61
2022/12/08 08:25:19;;;;;;;114.45;39.92;;;;;;;3.37;82.24;101385.52;1804074;78;25782;-63
2022/12/08 08:27:46;;;;;;;126.60;38.70;;;;;;;3.33;82.14;101387.91;1786516;79;25786;-61
2022/12/08 08:30:14;;;;;;;113.15;37.17;;;;;;;3.31;82.14;101392.47;1786880;80;25733;-61
2022/12/08 08:32:41;;;;;;;81.70;31.70;;;;;;;3.28;82.07;101389.47;1786095;79;28186;-61
2022/12/08 08:35:09;;;;;;;79.72;36.00;;;;;;;3.28;82.03;101394.78;1790915;78;25717;-61
2022/12/08 08:37:36;;;;;;;70.75;29.87;;;;;;;3.35;82.34;101396.69;1785576;78;25787;-62
2022/12/08 08:40:04;;;;;;;67.08;27.85;;;;;;;3.43;82.56;101398.50;1786364;80;25791;-61
2022/12/08 08:42:31;;;;;;;61.48;25.50;;;;;;;3.48;82.55;101396.95;1786575;80;26441;-61
2022/12/08 08:44:58;;;;;;;64.55;25.05;;;;;;;3.53;82.86;101399.78;1786606;78;29566;-61
2022/12/08 08:47:26;;;;;;;66.75;26.68;;;;;;;3.55;82.60;101397.04;1786445;80;25757;-62
2022/12/08 08:49:53;;;;;;;70.00;28.83;;;;;;;3.54;82.63;101399.34;1786310;80;25691;-61
2022/12/08 08:52:20;;;;;;;78.50;29.37;;;;;;;3.62;83.03;101390.95;1799497;78;26518;-61
2022/12/08 08:54:47;;;;;;;77.53;29.80;;;;;;;3.69;83.09;101389.70;1783755;80;25702;-61
2022/12/08 08:57:14;;;;;;;72.42;28.15;;;;;;;3.71;83.13;101383.84;1782880;80;27465;-62
2022/12/08 08:59:41;;;;;;;73.20;30.72;;;;;;;3.74;83.14;101377.90;1783070;80;25855;-62
2022/12/08 09:02:13;;;;;;;83.80;32.00;;;;;;;3.82;83.28;101371.32;1782779;80;25829;-62
2022/12/08 09:04:40;;;;;;;65.47;28.67;;;;;;;3.93;83.54;101366.32;1753252;80;25889;-62
2022/12/08 09:07:07;;;;;;;68.57;25.82;;;;;;;4.03;83.27;101373.38;1789390;78;25792;-62
2022/12/08 09:09:34;;;;;;;71.15;26.57;;;;;;;4.05;82.74;101371.03;1786623;80;27511;-62
2022/12/08 09:12:00;;;;;;;65.95;24.80;;;;;;;4.06;82.77;101368.76;1786369;80;25766;-62
2022/12/08 09:14:27;;;;;;;57.33;26.68;;;;;;;4.14;82.89;101375.48;1786773;80;25485;-62
2022/12/08 09:16:53;;;;;;;70.17;31.17;;;;;;;4.19;82.72;101376.97;1793045;78;25779;-62
2022/12/08 09:19:21;;;;;;;72.47;32.05;;;;;;;4.20;82.43;101373.82;1819064;78;25781;-62
2022/12/08 09:21:47;;;;;;;75.67;32.98;;;;;;;4.25;82.65;101374.46;1818614;78;27597;-62
2022/12/08 09:24:15;;;;;;;80.83;33.20;;;;;;;4.30;82.85;101368.89;1817736;78;25927;-62
2022/12/08 09:26:43;;;;;;;82.33;34.50;;;;;;;4.38;82.81;101369.34;1792725;80;25834;-62
2022/12/08 09:29:13;;;;;;;75.15;32.93;;;;;;;4.44;82.74;101369.49;1793212;80;25893;-62
2022/12/08 09:31:40;;;;;;;90.03;34.98;;;;;;;4.51;82.71;101365.55;1792818;80;25771;-62
2022/12/08 09:34:07;;;;;;;115.47;41.37;;;;;;;4.51;82.46;101365.06;1793139;80;28339;-62
2022/12/08 09:36:34;;;;;;;94.58;33.55;;;;;;;4.56;82.48;101364.82;1792640;80;25671;-62
2022/12/08 09:39:00;;;;;;;89.25;35.17;;;;;;;4.53;81.76;101367.19;1792707;80;25818;-62
2022/12/08 09:41:38;;;;;;;98.55;36.03;;;;;;;4.47;81.45;101359.53;1792782;80;25981;-62
2022/12/08 09:44:38;;;;;;;90.67;35.58;;;;;;;4.42;81.44;101350.91;1792771;80;25711;-62
2022/12/08 09:47:12;;;;;;;85.87;32.33;;;;;;;4.42;81.71;101350.06;1691015;84;27667;-62
2022/12/08 09:49:45;;;;;;;76.77;33.15;;;;;;;4.43;81.64;101356.63;1766542;80;25823;-62
2022/12/08 09:52:26;;;;;;;73.40;33.10;;;;;;;4.47;81.78;101357.32;1786237;80;26442;-62
2022/12/08 09:54:57;;;;;;;126.60;36.28;;;;;;;4.47;81.45;101361.31;1818206;78;26055;-62
2022/12/08 09:57:25;;;;;;;88.85;36.33;;;;;;;4.44;81.44;101359.69;1786592;80;25703;-62
2022/12/08 10:00:03;;;;;;;113.08;36.63;;;;;;;4.44;81.60;101363.68;1818993;78;27473;-62
2022/12/08 10:02:31;;;;;;;104.03;37.48;;;;;;;4.47;81.42;101363.53;1785743;80;25899;-62
2022/12/08 10:04:59;;;;;;;77.25;34.30;;;;;;;4.46;81.19;101363.13;1809556;78;25816;-62
2022/12/08 10:07:45;;;;;;;101.60;38.88;;;;;;;4.43;80.95;101363.77;1786732;80;25971;-62
2022/12/08 10:10:27;;;;;;;91.53;41.80;;;;;;;4.42;81.11;101362.05;1787417;78;25718;-62
2022/12/08 10:13:05;;;;;;;98.27;38.65;;;;;;;4.40;81.42;101354.11;1755583;81;27487;-62
2022/12/08 10:16:06;;;;;;;92.75;38.80;;;;;;;4.49;81.92;101350.11;1786724;80;25830;-62
2022/12/08 10:18:34;;;;;;;93.40;38.20;;;;;;;4.56;82.00;101347.98;1755514;81;25767;-61
2022/12/08 10:21:17;;;;;;;84.62;34.65;;;;;;;4.64;82.20;101337.28;1786690;80;25794;-61
2022/12/08 10:23:52;;;;;;;72.05;33.80;;;;;;;4.73;82.35;101341.72;1786935;80;26129;-61
2022/12/08 10:26:21;;;;;;;74.42;32.20;;;;;;;4.80;82.32;101343.09;1773607;80;27464;-61
2022/12/08 10:28:48;;;;;;;61.02;28.00;;;;;;;4.81;82.19;101329.70;1767557;81;25896;-63
2022/12/08 10:31:24;;;;;;;43.63;22.70;;;;;;;4.84;82.01;101328.17;1767350;81;25710;-62
2022/12/08 10:34:11;;;;;;;50.25;23.02;;;;;;;4.79;81.48;101326.73;1771421;79;26373;-61
2022/12/08 10:36:56;;;;;;;47.17;22.85;;;;;;;4.80;81.80;101328.44;1756244;81;25633;-62
2022/12/08 10:39:42;;;;;;;53.13;23.22;;;;;;;4.85;81.74;101327.72;1769283;79;27578;-62
2022/12/08 10:42:18;;;;;;;46.60;24.40;;;;;;;4.90;81.56;101331.47;1767145;81;26100;-61
2022/12/08 10:45:05;;;;;;;47.15;22.32;;;;;;;4.90;81.45;101329.64;1767749;81;25841;-61
2022/12/08 10:47:39;;;;;;;51.80;24.37;;;;;;;4.95;81.95;101332.94;1767660;79;25818;-61
2022/12/08 10:50:33;;;;;;;49.53;23.98;;;;;;;4.96;81.59;101325.33;1762748;81;26198;-62
2022/12/08 10:53:25;;;;;;;41.20;22.67;;;;;;;4.94;81.44;101330.33;1765108;80;27858;-61
2022/12/08 10:56:06;;;;;;;41.42;24.10;;;;;;;4.93;80.93;101341.48;1781479;80;25988;-62
2022/12/08 10:58:39;;;;;;;37.17;19.17;;;;;;;4.79;81.02;101334.73;1759010;80;25683;-61
2022/12/08 11:01:27;;;;;;;46.18;22.52;;;;;;;4.69;80.64;101337.91;1773979;79;26831;-61
2022/12/08 11:04:06;;;;;;;42.58;21.75;;;;;;;4.62;80.91;101342.31;1817669;78;25789;-62
2022/12/08 11:06:38;;;;;;;46.05;23.73;;;;;;;4.58;81.16;101339.41;1786737;79;27583;-62
2022/12/08 11:09:22;;;;;;;45.05;22.35;;;;;;;4.62;81.24;101344.98;1781540;77;26045;-62
2022/12/08 11:11:56;;;;;;;34.60;19.87;;;;;;;4.62;81.57;101338.31;1767485;81;25744;-62
2022/12/08 11:14:25;;;;;;;;;;;;;;;4.57;81.15;101337.72;1770034;81;28054;-62
2022/12/08 11:16:57;;;;;;;32.13;17.35;;;;;;;4.54;81.19;101332.06;1767473;81;25793;-62
2022/12/08 11:19:26;;;;;;;37.98;20.00;;;;;;;4.56;81.32;101330.67;1763985;81;28433;-62
2022/12/08 11:21:54;;;;;;;38.88;22.30;;;;;;;4.58;81.54;101328.30;1737409;81;25802;-62
2022/12/08 11:24:27;;;;;;;38.78;20.70;;;;;;;4.64;81.70;101326.62;1770198;79;25754;-62
2022/12/08 11:26:58;;;;;;;34.90;20.73;;;;;;;4.72;81.82;101325.33;1799692;79;25753;-61
2022/12/08 11:29:28;;;;;;;38.63;20.05;;;;;;;4.84;81.97;101319.34;1798730;79;25693;-62
2022/12/08 11:32:02;;;;;;;36.00;20.60;;;;;;;4.95;81.77;101316.05;1799159;79;27450;-62
2022/12/08 11:34:43;;;;;;;38.78;22.52;;;;;;;5.01;81.69;101302.41;1799288;79;25735;-62
2022/12/08 11:37:39;;;;;;;35.55;20.95;;;;;;;4.99;81.64;101308.28;1799338;79;25491;-62
2022/12/08 11:40:17;;;;;;;39.80;22.48;;;;;;;5.01;81.19;101310.40;1798087;79;25892;-62